East Line, New York
Current Conditions -  °F | °C
As of 9:30 AM on Thursday 27 Nov 2014 (Local Time) from KALB Reporting Station
Overcast Overcast  
Wind Chill: 25°   Ceiling: 3000
Heat Index: 31°   Visibility: 10mi
Dew Point: 26°   Wind: 6mph
Humidity: 82%   Direction: 340°NNW
Pressure: 30.01"   Gusts: NA
Location:  43.002°N, 73.8759°W
Report Text: KALB 271430Z 34005KT 10SM FEW012 BKN030 OVC110 M01/M03 A3001 RMK AO2 T10061033
Loading
Personal Weather Stations






























Interactive Weather Map New forecast layout! Learn more

10-Day Weather Forecast

Advertisements
Track Severe Weather on mobile